T7PYR LGSM-EGCC
Flight info
| Callsign | T7PYR |
|---|---|
| Flight time | 3h 26m |
| Altitude | 47000 |
| Route | ORMOS2B ORMOS H59 PIPEN UL609 MES UG18 FSK UL608 DISOR DCT LONTA UL608 DOLEV DCT ERKIR DCT ETAGO DCT LIRSU DCT DENUT DCT RAPIX L610 GILDA M14 STOAT DCT MOGLI UP6 LESTA LESTA1M |
| Aircraft | GL7T/M-SDFGIRWYB1/S |
Departure
| Time | 2026-05-05 17:11 |
|---|---|
| Airport | Samos Airport (LGSM) |
Arrival
| Time | 2026-05-05 20:38 |
|---|---|
| Airport | Manchester Airport (EGCC) |
| Time | Latitude | Longitude | Altitude | Speed | Heading |
|---|---|---|---|---|---|
| 2026-05-05 16:52 | 37.69011 | 26.91641 | 21 ft | 0 kts | 349° |
| 2026-05-05 17:06 | 37.69021 | 26.91636 | 21 ft | 7 kts | 324° |
| 2026-05-05 17:06 | 37.69030 | 26.91582 | 21 ft | 10 kts | 251° |
| 2026-05-05 17:06 | 37.69027 | 26.91494 | 21 ft | 10 kts | 274° |
| 2026-05-05 17:07 | 37.68996 | 26.91406 | 22 ft | 12 kts | 214° |
| 2026-05-05 17:07 | 37.68930 | 26.91342 | 21 ft | 12 kts | 234° |
| 2026-05-05 17:07 | 37.68913 | 26.91232 | 22 ft | 18 kts | 275° |
| 2026-05-05 17:07 | 37.68923 | 26.91071 | 24 ft | 18 kts | 274° |
| 2026-05-05 17:08 | 37.68929 | 26.90917 | 23 ft | 18 kts | 275° |
| 2026-05-05 17:08 | 37.68941 | 26.90764 | 23 ft | 16 kts | 276° |
| 2026-05-05 17:08 | 37.68952 | 26.90593 | 25 ft | 23 kts | 275° |
| 2026-05-05 17:08 | 37.68965 | 26.90402 | 29 ft | 21 kts | 275° |
| 2026-05-05 17:09 | 37.68971 | 26.90232 | 25 ft | 18 kts | 258° |
| 2026-05-05 17:09 | 37.68944 | 26.90121 | 26 ft | 12 kts | 285° |
| 2026-05-05 17:09 | 37.68980 | 26.90129 | 26 ft | 6 kts | 94° |
| 2026-05-05 17:09 | 37.68980 | 26.90131 | 26 ft | 0 kts | 94° |
| 2026-05-05 17:11 | 37.68956 | 26.90540 | 24 ft | 106 kts | 95° |
| 2026-05-05 17:11 | 37.68863 | 26.91846 | 177 ft | 167 kts | 95° |
| 2026-05-05 17:11 | 37.68715 | 26.93515 | 766 ft | 207 kts | 95° |
| 2026-05-05 17:12 | 37.67969 | 26.95181 | 1012 ft | 225 kts | 136° |
| 2026-05-05 17:12 | 37.66541 | 26.95974 | 1353 ft | 229 kts | 171° |
| 2026-05-05 17:12 | 37.65018 | 26.95628 | 1667 ft | 225 kts | 207° |
| 2026-05-05 17:12 | 37.63799 | 26.94479 | 2310 ft | 216 kts | 224° |
| 2026-05-05 17:13 | 37.62621 | 26.93309 | 3439 ft | 226 kts | 221° |
| 2026-05-05 17:13 | 37.61200 | 26.92313 | 4281 ft | 239 kts | 208° |
| 2026-05-05 17:13 | 37.59703 | 26.91375 | 5083 ft | 237 kts | 208° |
| 2026-05-05 17:13 | 37.58475 | 26.89948 | 5812 ft | 240 kts | 242° |
| 2026-05-05 17:14 | 37.58241 | 26.87968 | 6513 ft | 227 kts | 284° |
| 2026-05-05 17:14 | 37.58925 | 26.86199 | 7023 ft | 222 kts | 310° |
| 2026-05-05 17:14 | 37.59987 | 26.84856 | 7544 ft | 217 kts | 319° |
| 2026-05-05 17:14 | 37.61147 | 26.83402 | 8190 ft | 254 kts | 315° |
| 2026-05-05 17:15 | 37.62330 | 26.81688 | 8945 ft | 265 kts | 312° |
| 2026-05-05 17:15 | 37.63517 | 26.79906 | 9708 ft | 266 kts | 312° |
| 2026-05-05 17:15 | 37.64746 | 26.78148 | 10391 ft | 286 kts | 314° |
| 2026-05-05 17:15 | 37.66216 | 26.76098 | 11087 ft | 335 kts | 313° |
| 2026-05-05 17:16 | 37.67778 | 26.73862 | 11845 ft | 344 kts | 313° |
| 2026-05-05 17:16 | 37.69359 | 26.71562 | 12642 ft | 346 kts | 313° |
| 2026-05-05 17:16 | 37.70945 | 26.69280 | 13479 ft | 353 kts | 314° |
| 2026-05-05 17:16 | 37.72588 | 26.66943 | 14285 ft | 353 kts | 314° |
| 2026-05-05 17:17 | 37.74207 | 26.64627 | 15052 ft | 357 kts | 314° |
| 2026-05-05 17:17 | 37.75865 | 26.62239 | 15846 ft | 363 kts | 314° |
| 2026-05-05 17:17 | 37.77526 | 26.59841 | 16606 ft | 363 kts | 314° |
| 2026-05-05 17:17 | 37.79200 | 26.57433 | 17338 ft | 366 kts | 314° |
| 2026-05-05 17:18 | 37.80896 | 26.54999 | 18089 ft | 370 kts | 314° |
| 2026-05-05 17:18 | 37.82589 | 26.52561 | 18773 ft | 373 kts | 314° |
| 2026-05-05 17:18 | 37.84315 | 26.50067 | 19434 ft | 377 kts | 314° |
| 2026-05-05 17:18 | 37.86053 | 26.47558 | 20119 ft | 381 kts | 314° |
| 2026-05-05 17:19 | 37.87819 | 26.45010 | 20844 ft | 385 kts | 314° |
| 2026-05-05 17:19 | 37.89599 | 26.42437 | 21587 ft | 391 kts | 314° |
| 2026-05-05 17:19 | 37.91378 | 26.39862 | 22336 ft | 395 kts | 314° |
| 2026-05-05 17:19 | 37.93199 | 26.37226 | 23116 ft | 400 kts | 314° |
| 2026-05-05 17:20 | 37.95046 | 26.34553 | 23865 ft | 406 kts | 314° |
| 2026-05-05 17:20 | 37.96923 | 26.31829 | 24535 ft | 411 kts | 314° |
| 2026-05-05 17:20 | 37.98816 | 26.29081 | 25221 ft | 416 kts | 314° |
| 2026-05-05 17:20 | 38.00732 | 26.26298 | 25930 ft | 421 kts | 314° |
| 2026-05-05 17:21 | 38.02651 | 26.23508 | 26647 ft | 427 kts | 314° |
| 2026-05-05 17:21 | 38.04615 | 26.20651 | 27384 ft | 433 kts | 314° |
| 2026-05-05 17:21 | 38.06603 | 26.17755 | 28151 ft | 438 kts | 314° |
| 2026-05-05 17:22 | 38.10669 | 26.11826 | 29744 ft | 451 kts | 314° |
| 2026-05-05 17:22 | 38.12748 | 26.08789 | 30438 ft | 458 kts | 314° |
| 2026-05-05 17:22 | 38.14835 | 26.05738 | 31048 ft | 460 kts | 314° |
| 2026-05-05 17:22 | 38.16936 | 26.02661 | 31674 ft | 462 kts | 314° |
| 2026-05-05 17:23 | 38.19040 | 25.99580 | 32309 ft | 467 kts | 313° |
| 2026-05-05 17:23 | 38.21171 | 25.96457 | 32960 ft | 463 kts | 313° |
| 2026-05-05 17:23 | 38.23277 | 25.93364 | 33561 ft | 462 kts | 313° |
| 2026-05-05 17:23 | 38.25481 | 25.90412 | 34066 ft | 459 kts | 318° |
| 2026-05-05 17:24 | 38.27103 | 25.88684 | 34361 ft | 457 kts | 323° |
| 2026-05-05 17:24 | 38.30466 | 25.85460 | 34979 ft | 455 kts | 324° |
| 2026-05-05 17:24 | 38.32980 | 25.83007 | 35469 ft | 455 kts | 323° |
| 2026-05-05 17:24 | 38.34673 | 25.81339 | 35793 ft | 454 kts | 323° |
| 2026-05-05 17:25 | 38.37185 | 25.78883 | 36279 ft | 454 kts | 323° |
| 2026-05-05 17:25 | 38.38864 | 25.77256 | 36543 ft | 454 kts | 323° |
| 2026-05-05 17:25 | 38.42195 | 25.74014 | 37080 ft | 453 kts | 323° |
| 2026-05-05 17:25 | 38.44664 | 25.71588 | 37490 ft | 452 kts | 322° |
| 2026-05-05 17:26 | 38.47159 | 25.69142 | 37926 ft | 451 kts | 323° |
| 2026-05-05 17:26 | 38.49657 | 25.66705 | 38346 ft | 451 kts | 322° |
| 2026-05-05 17:26 | 38.52161 | 25.64258 | 38780 ft | 451 kts | 322° |
| 2026-05-05 17:26 | 38.54620 | 25.61841 | 39121 ft | 450 kts | 322° |
| 2026-05-05 17:27 | 38.57112 | 25.59394 | 39481 ft | 451 kts | 322° |
| 2026-05-05 17:27 | 38.59587 | 25.56966 | 39830 ft | 452 kts | 322° |
| 2026-05-05 17:27 | 38.62094 | 25.54504 | 40201 ft | 452 kts | 322° |
| 2026-05-05 17:27 | 38.64604 | 25.52033 | 40564 ft | 454 kts | 322° |
| 2026-05-05 17:28 | 38.67082 | 25.49591 | 40891 ft | 457 kts | 322° |
| 2026-05-05 17:28 | 38.69612 | 25.47098 | 41232 ft | 459 kts | 322° |
| 2026-05-05 17:28 | 38.72160 | 25.44586 | 41579 ft | 462 kts | 322° |
| 2026-05-05 17:28 | 38.74716 | 25.42062 | 41937 ft | 464 kts | 322° |
| 2026-05-05 17:29 | 38.77253 | 25.39553 | 42290 ft | 466 kts | 322° |
| 2026-05-05 17:29 | 38.79835 | 25.36999 | 42655 ft | 467 kts | 322° |
| 2026-05-05 17:29 | 38.82413 | 25.34446 | 43036 ft | 467 kts | 322° |
| 2026-05-05 17:29 | 38.84970 | 25.31913 | 43404 ft | 467 kts | 322° |
| 2026-05-05 17:30 | 38.87547 | 25.29356 | 43783 ft | 467 kts | 321° |
| 2026-05-05 17:30 | 38.90132 | 25.26788 | 44171 ft | 468 kts | 321° |
| 2026-05-05 17:30 | 38.92683 | 25.24252 | 44558 ft | 468 kts | 321° |
| 2026-05-05 17:30 | 38.95278 | 25.21672 | 44926 ft | 469 kts | 321° |
| 2026-05-05 17:31 | 38.97833 | 25.19128 | 45272 ft | 469 kts | 321° |
| 2026-05-05 17:31 | 39.00443 | 25.16526 | 45629 ft | 469 kts | 321° |
| 2026-05-05 17:31 | 39.02997 | 25.13977 | 45978 ft | 469 kts | 321° |
| 2026-05-05 17:31 | 39.05587 | 25.11390 | 46330 ft | 469 kts | 321° |
| 2026-05-05 17:32 | 39.08176 | 25.08803 | 46682 ft | 469 kts | 321° |
| 2026-05-05 17:32 | 39.10754 | 25.06223 | 47023 ft | 470 kts | 321° |
| 2026-05-05 17:32 | 39.13342 | 25.03631 | 47045 ft | 483 kts | 321° |
| 2026-05-05 17:33 | 39.18628 | 24.98330 | 47047 ft | 477 kts | 321° |
| 2026-05-05 17:33 | 39.23856 | 24.93077 | 47039 ft | 475 kts | 321° |
| 2026-05-05 17:34 | 39.29064 | 24.87838 | 47036 ft | 476 kts | 321° |
| 2026-05-05 17:34 | 39.34278 | 24.82580 | 47038 ft | 476 kts | 321° |
| 2026-05-05 17:35 | 39.39494 | 24.77312 | 47037 ft | 476 kts | 321° |
| 2026-05-05 17:35 | 39.44713 | 24.72030 | 47039 ft | 476 kts | 321° |
| 2026-05-05 17:36 | 39.49910 | 24.66759 | 47034 ft | 476 kts | 321° |
| 2026-05-05 17:36 | 39.55117 | 24.61467 | 47032 ft | 476 kts | 321° |
| 2026-05-05 17:37 | 39.60313 | 24.56171 | 47032 ft | 476 kts | 321° |
| 2026-05-05 17:37 | 39.65506 | 24.50872 | 47034 ft | 476 kts | 321° |
| 2026-05-05 17:38 | 39.70726 | 24.45531 | 47032 ft | 476 kts | 321° |
| 2026-05-05 17:38 | 39.75917 | 24.40212 | 47026 ft | 476 kts | 321° |
| 2026-05-05 17:39 | 39.81099 | 24.34890 | 47028 ft | 476 kts | 321° |
| 2026-05-05 17:39 | 39.86312 | 24.29528 | 47027 ft | 476 kts | 321° |
| 2026-05-05 17:40 | 39.91489 | 24.24189 | 47029 ft | 476 kts | 321° |
| 2026-05-05 17:40 | 39.96681 | 24.18826 | 47024 ft | 477 kts | 321° |
| 2026-05-05 17:41 | 40.01888 | 24.13436 | 47022 ft | 477 kts | 321° |
| 2026-05-05 17:41 | 40.07063 | 24.08069 | 47023 ft | 476 kts | 321° |
| 2026-05-05 17:42 | 40.12245 | 24.02684 | 47018 ft | 476 kts | 321° |
| 2026-05-05 17:42 | 40.17420 | 23.97295 | 47019 ft | 476 kts | 321° |
| 2026-05-05 17:43 | 40.22605 | 23.91885 | 47014 ft | 476 kts | 321° |
| 2026-05-05 17:43 | 40.27779 | 23.86475 | 47011 ft | 476 kts | 321° |
| 2026-05-05 17:44 | 40.32945 | 23.81063 | 47015 ft | 476 kts | 321° |
| 2026-05-05 17:44 | 40.38108 | 23.75644 | 47018 ft | 475 kts | 321° |
| 2026-05-05 17:45 | 40.43261 | 23.70224 | 47021 ft | 475 kts | 321° |
| 2026-05-05 17:45 | 40.48427 | 23.64778 | 47016 ft | 475 kts | 321° |
| 2026-05-05 17:46 | 40.53606 | 23.59309 | 47015 ft | 475 kts | 321° |
| 2026-05-05 17:46 | 40.58736 | 23.53880 | 47018 ft | 475 kts | 320° |
| 2026-05-05 17:47 | 40.63873 | 23.48432 | 47012 ft | 475 kts | 320° |
| 2026-05-05 17:47 | 40.68991 | 23.42993 | 47010 ft | 475 kts | 320° |
| 2026-05-05 17:48 | 40.74127 | 23.37524 | 47010 ft | 475 kts | 320° |
| 2026-05-05 17:48 | 40.79279 | 23.32027 | 47008 ft | 475 kts | 320° |
| 2026-05-05 17:49 | 40.84402 | 23.26550 | 47006 ft | 475 kts | 320° |
| 2026-05-05 17:49 | 40.89524 | 23.21063 | 47008 ft | 475 kts | 320° |
| 2026-05-05 17:50 | 40.94672 | 23.15536 | 47005 ft | 474 kts | 320° |
| 2026-05-05 17:50 | 40.99789 | 23.10031 | 47006 ft | 474 kts | 320° |
| 2026-05-05 17:51 | 41.04892 | 23.04530 | 47005 ft | 474 kts | 320° |
| 2026-05-05 17:51 | 41.09948 | 22.98876 | 46982 ft | 473 kts | 315° |
| 2026-05-05 17:52 | 41.14222 | 22.92309 | 47000 ft | 473 kts | 310° |
| 2026-05-05 17:52 | 41.18498 | 22.85651 | 46999 ft | 472 kts | 310° |
| 2026-05-05 17:53 | 41.22717 | 22.78984 | 46997 ft | 472 kts | 310° |
| 2026-05-05 17:53 | 41.27035 | 22.72435 | 46992 ft | 472 kts | 312° |
| 2026-05-05 17:54 | 41.31491 | 22.65976 | 46995 ft | 473 kts | 312° |
| 2026-05-05 17:54 | 41.35887 | 22.59491 | 46993 ft | 473 kts | 312° |
| 2026-05-05 17:55 | 41.40323 | 22.53011 | 46998 ft | 473 kts | 312° |
| 2026-05-05 17:55 | 41.44727 | 22.46509 | 46997 ft | 473 kts | 312° |
| 2026-05-05 17:56 | 41.49142 | 22.40015 | 46996 ft | 473 kts | 312° |
| 2026-05-05 17:56 | 41.53570 | 22.33463 | 46992 ft | 474 kts | 311° |
| 2026-05-05 17:57 | 41.57975 | 22.26944 | 46993 ft | 474 kts | 311° |
| 2026-05-05 17:57 | 41.62380 | 22.20404 | 46991 ft | 474 kts | 311° |
| 2026-05-05 17:58 | 41.66780 | 22.13859 | 46995 ft | 474 kts | 311° |
| 2026-05-05 17:58 | 41.71178 | 22.07304 | 46993 ft | 474 kts | 311° |
| 2026-05-05 17:59 | 41.75600 | 22.00697 | 46990 ft | 475 kts | 311° |
| 2026-05-05 17:59 | 41.80000 | 21.94108 | 46987 ft | 475 kts | 311° |
| 2026-05-05 18:00 | 41.83664 | 21.88611 | 46988 ft | 475 kts | 311° |
| 2026-05-05 18:00 | 41.88802 | 21.80884 | 46992 ft | 475 kts | 311° |
| 2026-05-05 18:01 | 41.93192 | 21.74265 | 46994 ft | 476 kts | 311° |
| 2026-05-05 18:01 | 41.97581 | 21.67634 | 46994 ft | 476 kts | 311° |
| 2026-05-05 18:02 | 42.01970 | 21.60987 | 46996 ft | 476 kts | 311° |
| 2026-05-05 18:02 | 42.06348 | 21.54344 | 47001 ft | 476 kts | 311° |
| 2026-05-05 18:03 | 42.10746 | 21.47653 | 47007 ft | 475 kts | 311° |
| 2026-05-05 18:03 | 42.15114 | 21.40995 | 47011 ft | 475 kts | 311° |
| 2026-05-05 18:04 | 42.19425 | 21.34266 | 47012 ft | 475 kts | 309° |
| 2026-05-05 18:04 | 42.23670 | 21.27451 | 47027 ft | 475 kts | 310° |
| 2026-05-05 18:05 | 42.27968 | 21.20688 | 47033 ft | 475 kts | 309° |
| 2026-05-05 18:05 | 42.32210 | 21.13881 | 47036 ft | 475 kts | 310° |
| 2026-05-05 18:06 | 42.36481 | 21.07097 | 47042 ft | 475 kts | 310° |
| 2026-05-05 18:06 | 42.40729 | 21.00277 | 47038 ft | 475 kts | 309° |
| 2026-05-05 18:07 | 42.45010 | 20.93426 | 47029 ft | 475 kts | 310° |
| 2026-05-05 18:07 | 42.49261 | 20.86584 | 47029 ft | 475 kts | 309° |
| 2026-05-05 18:08 | 42.53508 | 20.79746 | 47031 ft | 475 kts | 309° |
| 2026-05-05 18:08 | 42.57747 | 20.72896 | 47033 ft | 475 kts | 309° |
| 2026-05-05 18:09 | 42.61993 | 20.66024 | 47032 ft | 475 kts | 309° |
| 2026-05-05 18:09 | 42.66224 | 20.59158 | 47037 ft | 475 kts | 309° |
| 2026-05-05 18:10 | 42.70480 | 20.52237 | 47032 ft | 475 kts | 309° |
| 2026-05-05 18:10 | 42.74706 | 20.45349 | 47034 ft | 476 kts | 309° |
| 2026-05-05 18:11 | 42.78932 | 20.38442 | 47037 ft | 476 kts | 309° |
| 2026-05-05 18:11 | 42.83162 | 20.31516 | 47044 ft | 476 kts | 309° |
| 2026-05-05 18:12 | 42.87559 | 20.24760 | 47034 ft | 477 kts | 311° |
| 2026-05-05 18:12 | 42.91965 | 20.17979 | 47041 ft | 477 kts | 310° |
| 2026-05-05 18:13 | 42.96350 | 20.11227 | 47038 ft | 477 kts | 311° |
| 2026-05-05 18:13 | 43.00758 | 20.04428 | 47041 ft | 477 kts | 310° |
| 2026-05-05 18:14 | 43.04429 | 19.98741 | 47042 ft | 478 kts | 310° |
| 2026-05-05 18:14 | 43.09530 | 19.90839 | 47045 ft | 478 kts | 310° |
| 2026-05-05 18:15 | 43.13198 | 19.85133 | 47039 ft | 478 kts | 310° |
| 2026-05-05 18:15 | 43.17574 | 19.78322 | 47041 ft | 478 kts | 310° |
| 2026-05-05 18:16 | 43.21984 | 19.71433 | 47045 ft | 479 kts | 310° |
| 2026-05-05 18:16 | 43.26367 | 19.64577 | 47040 ft | 479 kts | 310° |
| 2026-05-05 18:17 | 43.30739 | 19.57716 | 47029 ft | 478 kts | 310° |
| 2026-05-05 18:17 | 43.35109 | 19.50847 | 47038 ft | 478 kts | 310° |
| 2026-05-05 18:18 | 43.39495 | 19.43931 | 47038 ft | 479 kts | 310° |
| 2026-05-05 18:18 | 43.43869 | 19.37023 | 47045 ft | 479 kts | 310° |
| 2026-05-05 18:19 | 43.48223 | 19.30125 | 47044 ft | 479 kts | 310° |
| 2026-05-05 18:19 | 43.52578 | 19.23214 | 47040 ft | 479 kts | 310° |
| 2026-05-05 18:20 | 43.56938 | 19.16274 | 47041 ft | 479 kts | 310° |
| 2026-05-05 18:20 | 43.61290 | 19.09331 | 47044 ft | 479 kts | 310° |
| 2026-05-05 18:21 | 43.65640 | 19.02375 | 47047 ft | 479 kts | 309° |
| 2026-05-05 18:21 | 43.70017 | 18.95360 | 47050 ft | 480 kts | 309° |
| 2026-05-05 18:22 | 43.74363 | 18.88375 | 47054 ft | 480 kts | 309° |
| 2026-05-05 18:22 | 43.78699 | 18.81393 | 47049 ft | 480 kts | 309° |
| 2026-05-05 18:23 | 43.83037 | 18.74388 | 47064 ft | 480 kts | 309° |
| 2026-05-05 18:23 | 43.87360 | 18.67390 | 47071 ft | 480 kts | 309° |
| 2026-05-05 18:24 | 43.91714 | 18.60326 | 47067 ft | 480 kts | 309° |
| 2026-05-05 18:24 | 43.96037 | 18.53294 | 47071 ft | 480 kts | 309° |
| 2026-05-05 18:25 | 44.00359 | 18.46247 | 47070 ft | 481 kts | 309° |
| 2026-05-05 18:25 | 44.04709 | 18.39136 | 47066 ft | 481 kts | 309° |
| 2026-05-05 18:26 | 44.09021 | 18.32062 | 47065 ft | 481 kts | 309° |
| 2026-05-05 18:26 | 44.13362 | 18.24944 | 47045 ft | 481 kts | 309° |
| 2026-05-05 18:27 | 44.17667 | 18.17847 | 47031 ft | 481 kts | 308° |
| 2026-05-05 18:27 | 44.21996 | 18.10703 | 47031 ft | 482 kts | 309° |
| 2026-05-05 18:28 | 44.28459 | 17.99996 | 47029 ft | 482 kts | 308° |
| 2026-05-05 18:28 | 44.32787 | 17.92810 | 47022 ft | 482 kts | 308° |
| 2026-05-05 18:29 | 44.37089 | 17.85643 | 47024 ft | 482 kts | 308° |
| 2026-05-05 18:29 | 44.41371 | 17.78495 | 47021 ft | 481 kts | 308° |
| 2026-05-05 18:30 | 44.45661 | 17.71313 | 47020 ft | 481 kts | 308° |
| 2026-05-05 18:30 | 44.49948 | 17.64121 | 47014 ft | 481 kts | 308° |
| 2026-05-05 18:31 | 44.54243 | 17.56892 | 47017 ft | 483 kts | 308° |
| 2026-05-05 18:31 | 44.58543 | 17.49644 | 47019 ft | 484 kts | 308° |
| 2026-05-05 18:32 | 44.62836 | 17.42382 | 47013 ft | 485 kts | 308° |
| 2026-05-05 18:32 | 44.67147 | 17.35075 | 47006 ft | 485 kts | 308° |
| 2026-05-05 18:33 | 44.71422 | 17.27809 | 47007 ft | 484 kts | 308° |
| 2026-05-05 18:33 | 44.75719 | 17.20489 | 47005 ft | 485 kts | 308° |
| 2026-05-05 18:34 | 44.80010 | 17.13156 | 47004 ft | 484 kts | 308° |
| 2026-05-05 18:34 | 44.84274 | 17.05854 | 46999 ft | 484 kts | 308° |
| 2026-05-05 18:35 | 44.88554 | 16.98505 | 47002 ft | 484 kts | 308° |
| 2026-05-05 18:35 | 44.92816 | 16.91168 | 47000 ft | 484 kts | 308° |
| 2026-05-05 18:36 | 44.97069 | 16.83827 | 46999 ft | 484 kts | 307° |
| 2026-05-05 18:36 | 45.01334 | 16.76446 | 46996 ft | 484 kts | 307° |
| 2026-05-05 18:37 | 45.05566 | 16.69103 | 47000 ft | 484 kts | 307° |
| 2026-05-05 18:37 | 45.09810 | 16.61720 | 47000 ft | 484 kts | 307° |
| 2026-05-05 18:38 | 45.14065 | 16.54299 | 46998 ft | 484 kts | 307° |
| 2026-05-05 18:38 | 45.18286 | 16.46918 | 46992 ft | 484 kts | 307° |
| 2026-05-05 18:39 | 45.22535 | 16.39467 | 46996 ft | 484 kts | 307° |
| 2026-05-05 18:39 | 45.26750 | 16.32058 | 46999 ft | 484 kts | 307° |
| 2026-05-05 18:40 | 45.30986 | 16.24593 | 46999 ft | 484 kts | 307° |
| 2026-05-05 18:40 | 45.35190 | 16.17163 | 46992 ft | 484 kts | 307° |
| 2026-05-05 18:41 | 45.39405 | 16.09695 | 46994 ft | 484 kts | 307° |
| 2026-05-05 18:41 | 45.43613 | 16.02221 | 46991 ft | 485 kts | 307° |
| 2026-05-05 18:42 | 45.47837 | 15.94694 | 46992 ft | 486 kts | 307° |
| 2026-05-05 18:42 | 45.52038 | 15.87193 | 46987 ft | 486 kts | 307° |
| 2026-05-05 18:43 | 45.56274 | 15.79607 | 46986 ft | 487 kts | 307° |
| 2026-05-05 18:43 | 45.60468 | 15.72076 | 46985 ft | 487 kts | 307° |
| 2026-05-05 18:44 | 45.64697 | 15.64461 | 46980 ft | 487 kts | 307° |
| 2026-05-05 18:44 | 45.68890 | 15.56891 | 46979 ft | 488 kts | 307° |
| 2026-05-05 18:45 | 45.73115 | 15.49244 | 46976 ft | 488 kts | 307° |
| 2026-05-05 18:45 | 45.77303 | 15.41642 | 46973 ft | 488 kts | 306° |
| 2026-05-05 18:46 | 45.81492 | 15.34019 | 46974 ft | 488 kts | 306° |
| 2026-05-05 18:46 | 45.85682 | 15.26370 | 46980 ft | 488 kts | 306° |
| 2026-05-05 18:47 | 45.89860 | 15.18723 | 46979 ft | 489 kts | 306° |
| 2026-05-05 18:47 | 45.94057 | 15.11015 | 46980 ft | 489 kts | 306° |
| 2026-05-05 18:48 | 45.98251 | 15.03308 | 46989 ft | 489 kts | 306° |
| 2026-05-05 18:48 | 46.02421 | 14.95605 | 46988 ft | 489 kts | 306° |
| 2026-05-05 18:49 | 46.06610 | 14.87859 | 46990 ft | 489 kts | 306° |
| 2026-05-05 18:49 | 46.10775 | 14.80130 | 46999 ft | 489 kts | 306° |
| 2026-05-05 18:50 | 46.14958 | 14.72352 | 46999 ft | 489 kts | 306° |
| 2026-05-05 18:50 | 46.19098 | 14.64623 | 47001 ft | 489 kts | 306° |
| 2026-05-05 18:51 | 46.23268 | 14.56826 | 47002 ft | 489 kts | 306° |
| 2026-05-05 18:51 | 46.27421 | 14.49032 | 46997 ft | 490 kts | 306° |
| 2026-05-05 18:52 | 46.31570 | 14.41228 | 47001 ft | 489 kts | 305° |
| 2026-05-05 18:52 | 46.35689 | 14.33457 | 46989 ft | 489 kts | 305° |
| 2026-05-05 18:53 | 46.39833 | 14.25617 | 46991 ft | 490 kts | 305° |
| 2026-05-05 18:53 | 46.43966 | 14.17775 | 46963 ft | 490 kts | 305° |
| 2026-05-05 18:54 | 46.48117 | 14.09879 | 46950 ft | 490 kts | 305° |
| 2026-05-05 18:54 | 46.52239 | 14.02014 | 46958 ft | 490 kts | 305° |
| 2026-05-05 18:55 | 46.56360 | 13.94130 | 46952 ft | 491 kts | 305° |
| 2026-05-05 18:55 | 46.60468 | 13.86247 | 46971 ft | 492 kts | 305° |
| 2026-05-05 18:56 | 46.64595 | 13.78307 | 46962 ft | 492 kts | 305° |
| 2026-05-05 18:56 | 46.68724 | 13.70339 | 46962 ft | 494 kts | 305° |
| 2026-05-05 18:57 | 46.72846 | 13.62362 | 46966 ft | 495 kts | 305° |
| 2026-05-05 18:57 | 46.76978 | 13.54342 | 46969 ft | 495 kts | 304° |
| 2026-05-05 18:58 | 46.81106 | 13.46306 | 46968 ft | 495 kts | 304° |
| 2026-05-05 18:58 | 46.85253 | 13.38212 | 46971 ft | 495 kts | 304° |
| 2026-05-05 18:59 | 46.89363 | 13.30164 | 46967 ft | 495 kts | 304° |
| 2026-05-05 18:59 | 46.93487 | 13.22068 | 46956 ft | 495 kts | 304° |
| 2026-05-05 19:00 | 46.97572 | 13.14020 | 46955 ft | 495 kts | 304° |
| 2026-05-05 19:00 | 47.01687 | 13.05895 | 46946 ft | 495 kts | 304° |
| 2026-05-05 19:01 | 47.05774 | 12.97800 | 46926 ft | 496 kts | 304° |
| 2026-05-05 19:01 | 47.09854 | 12.89692 | 46920 ft | 494 kts | 304° |
| 2026-05-05 19:02 | 47.13925 | 12.81584 | 46906 ft | 495 kts | 304° |
| 2026-05-05 19:02 | 47.18023 | 12.73391 | 46901 ft | 496 kts | 304° |
| 2026-05-05 19:03 | 47.22099 | 12.65224 | 46883 ft | 496 kts | 304° |
| 2026-05-05 19:03 | 47.26163 | 12.57054 | 46878 ft | 497 kts | 304° |
| 2026-05-05 19:04 | 47.30232 | 12.48850 | 46865 ft | 497 kts | 304° |
| 2026-05-05 19:04 | 47.34303 | 12.40615 | 46860 ft | 498 kts | 304° |
| 2026-05-05 19:05 | 47.38371 | 12.32367 | 46850 ft | 498 kts | 304° |
| 2026-05-05 19:05 | 47.42447 | 12.24071 | 46845 ft | 498 kts | 304° |
| 2026-05-05 19:06 | 47.45847 | 12.17148 | 46847 ft | 500 kts | 303° |
| 2026-05-05 19:06 | 47.50579 | 12.07458 | 46842 ft | 499 kts | 304° |
| 2026-05-05 19:07 | 47.53979 | 12.00484 | 46840 ft | 499 kts | 303° |
| 2026-05-05 19:07 | 47.58707 | 11.90795 | 46838 ft | 500 kts | 304° |
| 2026-05-05 19:08 | 47.62120 | 11.83782 | 46838 ft | 500 kts | 303° |
| 2026-05-05 19:08 | 47.66173 | 11.75419 | 46843 ft | 501 kts | 304° |
| 2026-05-05 19:09 | 47.70217 | 11.67063 | 46847 ft | 500 kts | 303° |
| 2026-05-05 19:09 | 47.74237 | 11.58668 | 46843 ft | 500 kts | 303° |
| 2026-05-05 19:10 | 47.78317 | 11.50262 | 46846 ft | 500 kts | 303° |
| 2026-05-05 19:10 | 47.82345 | 11.41807 | 46849 ft | 500 kts | 303° |
| 2026-05-05 19:11 | 47.86376 | 11.33411 | 46846 ft | 499 kts | 303° |
| 2026-05-05 19:11 | 47.90378 | 11.24979 | 46843 ft | 499 kts | 303° |
| 2026-05-05 19:12 | 47.94384 | 11.16556 | 46843 ft | 499 kts | 303° |
| 2026-05-05 19:12 | 47.98375 | 11.08119 | 46845 ft | 499 kts | 303° |
| 2026-05-05 19:13 | 48.02377 | 10.99638 | 46846 ft | 500 kts | 303° |
| 2026-05-05 19:13 | 48.06375 | 10.91141 | 46845 ft | 501 kts | 303° |
| 2026-05-05 19:14 | 48.10381 | 10.82598 | 46840 ft | 501 kts | 303° |
| 2026-05-05 19:14 | 48.14388 | 10.74028 | 46830 ft | 501 kts | 303° |
| 2026-05-05 19:15 | 48.18038 | 10.66193 | 46837 ft | 501 kts | 303° |
| 2026-05-05 19:15 | 48.22034 | 10.57597 | 46842 ft | 501 kts | 303° |
| 2026-05-05 19:16 | 48.25990 | 10.49054 | 46854 ft | 501 kts | 302° |
| 2026-05-05 19:16 | 48.29975 | 10.40425 | 46856 ft | 501 kts | 302° |
| 2026-05-05 19:17 | 48.33938 | 10.31813 | 46852 ft | 501 kts | 302° |
| 2026-05-05 19:17 | 48.37895 | 10.23189 | 46853 ft | 501 kts | 302° |
| 2026-05-05 19:18 | 48.41831 | 10.14583 | 46850 ft | 501 kts | 302° |
| 2026-05-05 19:18 | 48.45785 | 10.05909 | 46851 ft | 501 kts | 302° |
| 2026-05-05 19:19 | 48.49720 | 9.97250 | 46851 ft | 502 kts | 302° |
| 2026-05-05 19:19 | 48.53666 | 9.88538 | 46847 ft | 502 kts | 302° |
| 2026-05-05 19:20 | 48.57582 | 9.79865 | 46845 ft | 502 kts | 302° |
| 2026-05-05 19:20 | 48.61523 | 9.71107 | 46845 ft | 502 kts | 302° |
| 2026-05-05 19:21 | 48.65424 | 9.62414 | 46842 ft | 502 kts | 302° |
| 2026-05-05 19:21 | 48.69323 | 9.53691 | 46846 ft | 502 kts | 302° |
| 2026-05-05 19:22 | 48.73284 | 9.44925 | 46826 ft | 502 kts | 304° |
| 2026-05-05 19:22 | 48.77579 | 9.36610 | 46830 ft | 504 kts | 306° |
| 2026-05-05 19:23 | 48.81869 | 9.28161 | 46836 ft | 504 kts | 305° |
| 2026-05-05 19:23 | 48.86152 | 9.19767 | 46841 ft | 504 kts | 306° |
| 2026-05-05 19:24 | 48.90434 | 9.11322 | 46838 ft | 504 kts | 305° |
| 2026-05-05 19:24 | 48.94704 | 9.02876 | 46841 ft | 504 kts | 305° |
| 2026-05-05 19:25 | 48.98999 | 8.94365 | 46839 ft | 504 kts | 305° |
| 2026-05-05 19:25 | 49.03229 | 8.85939 | 46833 ft | 504 kts | 305° |
| 2026-05-05 19:26 | 49.07498 | 8.77425 | 46842 ft | 504 kts | 305° |
| 2026-05-05 19:26 | 49.11735 | 8.68935 | 46834 ft | 504 kts | 305° |
| 2026-05-05 19:27 | 49.15981 | 8.60411 | 46829 ft | 504 kts | 305° |
| 2026-05-05 19:27 | 49.20200 | 8.51906 | 46833 ft | 504 kts | 304° |
| 2026-05-05 19:28 | 49.24433 | 8.43350 | 46833 ft | 504 kts | 304° |
| 2026-05-05 19:28 | 49.28669 | 8.34756 | 46832 ft | 504 kts | 304° |
| 2026-05-05 19:29 | 49.32879 | 8.26192 | 46832 ft | 504 kts | 304° |
| 2026-05-05 19:29 | 49.37085 | 8.17606 | 46833 ft | 504 kts | 304° |
| 2026-05-05 19:30 | 49.41289 | 8.08998 | 46833 ft | 504 kts | 304° |
| 2026-05-05 19:30 | 49.45484 | 8.00378 | 46823 ft | 504 kts | 304° |
| 2026-05-05 19:31 | 49.49663 | 7.91764 | 46819 ft | 504 kts | 304° |
| 2026-05-05 19:31 | 49.53858 | 7.83090 | 46813 ft | 504 kts | 304° |
| 2026-05-05 19:32 | 49.58018 | 7.74462 | 46810 ft | 504 kts | 304° |
| 2026-05-05 19:32 | 49.62196 | 7.65763 | 46817 ft | 503 kts | 304° |
| 2026-05-05 19:33 | 49.66348 | 7.57094 | 46815 ft | 503 kts | 304° |
| 2026-05-05 19:33 | 49.70512 | 7.48372 | 46816 ft | 503 kts | 304° |
| 2026-05-05 19:34 | 49.74636 | 7.39703 | 46827 ft | 503 kts | 304° |
| 2026-05-05 19:35 | 49.80841 | 7.26605 | 46836 ft | 502 kts | 304° |
| 2026-05-05 19:35 | 49.84952 | 7.17893 | 46835 ft | 502 kts | 304° |
| 2026-05-05 19:36 | 49.89081 | 7.09114 | 46832 ft | 502 kts | 304° |
| 2026-05-05 19:36 | 49.93176 | 7.00379 | 46817 ft | 502 kts | 304° |
| 2026-05-05 19:37 | 49.97271 | 6.91614 | 46804 ft | 502 kts | 304° |
| 2026-05-05 19:37 | 50.01346 | 6.82863 | 46806 ft | 502 kts | 304° |
| 2026-05-05 19:38 | 50.05446 | 6.74028 | 46817 ft | 502 kts | 304° |
| 2026-05-05 19:38 | 50.09506 | 6.65251 | 46808 ft | 501 kts | 304° |
| 2026-05-05 19:39 | 50.13568 | 6.56440 | 46806 ft | 501 kts | 303° |
| 2026-05-05 19:39 | 50.17652 | 6.47551 | 46803 ft | 502 kts | 303° |
| 2026-05-05 19:40 | 50.21408 | 6.38444 | 46797 ft | 501 kts | 299° |
| 2026-05-05 19:40 | 50.25031 | 6.29182 | 46811 ft | 501 kts | 300° |
| 2026-05-05 19:41 | 50.28715 | 6.19874 | 46820 ft | 501 kts | 300° |
| 2026-05-05 19:41 | 50.32322 | 6.10602 | 46825 ft | 501 kts | 300° |
| 2026-05-05 19:42 | 50.35978 | 6.01275 | 46831 ft | 501 kts | 300° |
| 2026-05-05 19:42 | 50.39583 | 5.91967 | 46842 ft | 502 kts | 300° |
| 2026-05-05 19:43 | 50.43206 | 5.82635 | 46848 ft | 502 kts | 300° |
| 2026-05-05 19:43 | 50.46811 | 5.73277 | 46856 ft | 502 kts | 300° |
| 2026-05-05 19:44 | 50.50440 | 5.63848 | 46863 ft | 502 kts | 299° |
| 2026-05-05 19:44 | 50.54039 | 5.54449 | 46864 ft | 503 kts | 299° |
| 2026-05-05 19:45 | 50.57635 | 5.45032 | 46866 ft | 503 kts | 299° |
| 2026-05-05 19:45 | 50.61219 | 5.35608 | 46866 ft | 503 kts | 299° |
| 2026-05-05 19:46 | 50.64800 | 5.26157 | 46860 ft | 503 kts | 299° |
| 2026-05-05 19:46 | 50.68373 | 5.16695 | 46865 ft | 504 kts | 299° |
| 2026-05-05 19:47 | 50.71960 | 5.07159 | 46870 ft | 504 kts | 299° |
| 2026-05-05 19:47 | 50.75524 | 4.97648 | 46869 ft | 504 kts | 299° |
| 2026-05-05 19:48 | 50.79082 | 4.88120 | 46890 ft | 504 kts | 299° |
| 2026-05-05 19:48 | 50.82627 | 4.78591 | 46891 ft | 504 kts | 299° |
| 2026-05-05 19:49 | 50.86170 | 4.69032 | 46892 ft | 504 kts | 299° |
| 2026-05-05 19:49 | 50.89723 | 4.59411 | 46882 ft | 505 kts | 299° |
| 2026-05-05 19:50 | 50.93246 | 4.49833 | 46896 ft | 505 kts | 298° |
| 2026-05-05 19:50 | 50.96768 | 4.40224 | 46891 ft | 505 kts | 298° |
| 2026-05-05 19:51 | 51.00284 | 4.30593 | 46903 ft | 505 kts | 298° |
| 2026-05-05 19:51 | 51.03793 | 4.20945 | 46888 ft | 505 kts | 298° |
| 2026-05-05 19:52 | 51.07308 | 4.11248 | 46893 ft | 505 kts | 298° |
| 2026-05-05 19:52 | 51.10796 | 4.01584 | 46887 ft | 505 kts | 298° |
| 2026-05-05 19:53 | 51.14289 | 3.91874 | 46887 ft | 505 kts | 298° |
| 2026-05-05 19:53 | 51.17775 | 3.82143 | 46885 ft | 505 kts | 298° |
| 2026-05-05 19:54 | 51.21228 | 3.72467 | 46893 ft | 505 kts | 298° |
| 2026-05-05 19:54 | 51.24066 | 3.62241 | 46875 ft | 500 kts | 284° |
| 2026-05-05 19:55 | 51.25484 | 3.51421 | 46907 ft | 500 kts | 280° |
| 2026-05-05 19:55 | 51.26942 | 3.40626 | 46909 ft | 499 kts | 280° |
| 2026-05-05 19:56 | 51.28334 | 3.29758 | 46914 ft | 497 kts | 280° |
| 2026-05-05 19:56 | 51.29717 | 3.19123 | 46911 ft | 496 kts | 280° |
| 2026-05-05 19:57 | 51.31096 | 3.08355 | 46915 ft | 496 kts | 279° |
| 2026-05-05 19:57 | 51.32462 | 2.97587 | 46916 ft | 495 kts | 279° |
| 2026-05-05 19:58 | 51.33828 | 2.86799 | 46922 ft | 495 kts | 279° |
| 2026-05-05 19:58 | 51.35173 | 2.76026 | 46917 ft | 494 kts | 279° |
| 2026-05-05 19:59 | 51.36517 | 2.65233 | 46922 ft | 493 kts | 279° |
| 2026-05-05 19:59 | 51.37838 | 2.54483 | 46926 ft | 493 kts | 279° |
| 2026-05-05 20:00 | 51.38940 | 2.45498 | 46927 ft | 494 kts | 279° |
| 2026-05-05 20:00 | 51.40250 | 2.34684 | 46935 ft | 494 kts | 279° |
| 2026-05-05 20:01 | 51.41549 | 2.23927 | 46938 ft | 494 kts | 279° |
| 2026-05-05 20:01 | 51.42834 | 2.13140 | 46936 ft | 493 kts | 279° |
| 2026-05-05 20:02 | 51.44118 | 2.02320 | 46940 ft | 494 kts | 279° |
| 2026-05-05 20:02 | 51.45389 | 1.91534 | 46941 ft | 494 kts | 279° |
| 2026-05-05 20:03 | 51.46664 | 1.80660 | 46946 ft | 495 kts | 279° |
| 2026-05-05 20:03 | 51.47911 | 1.69806 | 46951 ft | 494 kts | 279° |
| 2026-05-05 20:04 | 51.49150 | 1.58999 | 46952 ft | 494 kts | 279° |
| 2026-05-05 20:04 | 51.50382 | 1.48137 | 46950 ft | 494 kts | 279° |
| 2026-05-05 20:05 | 51.51606 | 1.37251 | 46952 ft | 495 kts | 279° |
| 2026-05-05 20:05 | 51.52823 | 1.26344 | 46952 ft | 495 kts | 279° |
| 2026-05-05 20:06 | 51.54024 | 1.15479 | 46958 ft | 495 kts | 279° |
| 2026-05-05 20:06 | 51.55215 | 1.04609 | 46967 ft | 495 kts | 279° |
| 2026-05-05 20:07 | 51.56400 | 0.93673 | 46972 ft | 496 kts | 279° |
| 2026-05-05 20:07 | 51.57571 | 0.82790 | 46976 ft | 497 kts | 279° |
| 2026-05-05 20:08 | 51.58740 | 0.71823 | 46975 ft | 497 kts | 279° |
| 2026-05-05 20:08 | 51.59954 | 0.60870 | 46956 ft | 497 kts | 282° |
| 2026-05-05 20:09 | 51.62505 | 0.50770 | 46962 ft | 500 kts | 300° |
| 2026-05-05 20:09 | 51.66912 | 0.42120 | 46956 ft | 503 kts | 316° |
| 2026-05-05 20:09 | 51.69626 | 0.38650 | 46428 ft | 500 kts | 324° |
| 2026-05-05 20:10 | 51.72601 | 0.35787 | 45792 ft | 493 kts | 330° |
| 2026-05-05 20:10 | 51.75636 | 0.33254 | 45166 ft | 489 kts | 332° |
| 2026-05-05 20:10 | 51.78618 | 0.30747 | 44542 ft | 486 kts | 330° |
| 2026-05-05 20:10 | 51.81552 | 0.28017 | 43899 ft | 484 kts | 327° |
| 2026-05-05 20:11 | 51.84303 | 0.24874 | 43263 ft | 484 kts | 320° |
| 2026-05-05 20:11 | 51.86796 | 0.21257 | 42641 ft | 485 kts | 315° |
| 2026-05-05 20:11 | 51.89188 | 0.17385 | 42004 ft | 485 kts | 313° |
| 2026-05-05 20:11 | 51.91579 | 0.13512 | 41359 ft | 485 kts | 314° |
| 2026-05-05 20:12 | 51.94122 | 0.09890 | 40725 ft | 486 kts | 319° |
| 2026-05-05 20:12 | 51.96740 | 0.06436 | 40083 ft | 486 kts | 319° |
| 2026-05-05 20:12 | 51.99268 | 0.02871 | 39442 ft | 486 kts | 316° |
| 2026-05-05 20:12 | 52.01772 | -0.00830 | 38789 ft | 486 kts | 318° |
| 2026-05-05 20:13 | 52.04531 | -0.04006 | 38088 ft | 488 kts | 327° |
| 2026-05-05 20:13 | 52.07530 | -0.06623 | 37451 ft | 489 kts | 332° |
| 2026-05-05 20:13 | 52.10601 | -0.09036 | 36793 ft | 491 kts | 332° |
| 2026-05-05 20:13 | 52.13645 | -0.11593 | 36154 ft | 492 kts | 329° |
| 2026-05-05 20:14 | 52.16605 | -0.14358 | 35513 ft | 488 kts | 328° |
| 2026-05-05 20:14 | 52.19554 | -0.17066 | 34869 ft | 483 kts | 329° |
| 2026-05-05 20:14 | 52.22524 | -0.19590 | 34239 ft | 477 kts | 331° |
| 2026-05-05 20:14 | 52.25421 | -0.22045 | 33570 ft | 471 kts | 329° |
| 2026-05-05 20:15 | 52.28285 | -0.24623 | 32953 ft | 465 kts | 328° |
| 2026-05-05 20:15 | 52.30953 | -0.27587 | 32334 ft | 458 kts | 319° |
| 2026-05-05 20:15 | 52.33224 | -0.31088 | 31746 ft | 450 kts | 309° |
| 2026-05-05 20:15 | 52.35259 | -0.34953 | 31173 ft | 445 kts | 307° |
| 2026-05-05 20:16 | 52.37272 | -0.38797 | 30583 ft | 440 kts | 308° |
| 2026-05-05 20:16 | 52.39301 | -0.42466 | 30003 ft | 437 kts | 309° |
| 2026-05-05 20:16 | 52.41345 | -0.46120 | 29400 ft | 432 kts | 308° |
| 2026-05-05 20:16 | 52.43335 | -0.49802 | 28818 ft | 427 kts | 307° |
| 2026-05-05 20:17 | 52.45255 | -0.53416 | 28272 ft | 422 kts | 308° |
| 2026-05-05 20:17 | 52.47198 | -0.57009 | 27719 ft | 418 kts | 308° |
| 2026-05-05 20:17 | 52.49143 | -0.60564 | 27167 ft | 414 kts | 309° |
| 2026-05-05 20:17 | 52.51025 | -0.64044 | 26627 ft | 409 kts | 308° |
| 2026-05-05 20:18 | 52.52896 | -0.67540 | 26091 ft | 405 kts | 308° |
| 2026-05-05 20:18 | 52.54755 | -0.71005 | 25556 ft | 401 kts | 309° |
| 2026-05-05 20:18 | 52.56605 | -0.74435 | 25026 ft | 398 kts | 309° |
| 2026-05-05 20:18 | 52.58415 | -0.77801 | 24497 ft | 394 kts | 309° |
| 2026-05-05 20:19 | 52.60217 | -0.81170 | 23993 ft | 390 kts | 309° |
| 2026-05-05 20:19 | 52.62005 | -0.84515 | 23467 ft | 387 kts | 309° |
| 2026-05-05 20:19 | 52.63782 | -0.87834 | 22926 ft | 383 kts | 309° |
| 2026-05-05 20:19 | 52.65517 | -0.91082 | 22432 ft | 380 kts | 309° |
| 2026-05-05 20:20 | 52.67266 | -0.94366 | 21938 ft | 378 kts | 309° |
| 2026-05-05 20:20 | 52.68980 | -0.97588 | 21448 ft | 375 kts | 309° |
| 2026-05-05 20:20 | 52.70700 | -1.00819 | 20953 ft | 372 kts | 309° |
| 2026-05-05 20:20 | 52.72409 | -1.04037 | 20460 ft | 369 kts | 309° |
| 2026-05-05 20:21 | 52.74088 | -1.07211 | 20025 ft | 380 kts | 309° |
| 2026-05-05 20:21 | 52.75853 | -1.10573 | 20033 ft | 391 kts | 308° |
| 2026-05-05 20:21 | 52.77623 | -1.13926 | 20029 ft | 389 kts | 309° |
| 2026-05-05 20:21 | 52.79408 | -1.17255 | 19871 ft | 376 kts | 309° |
| 2026-05-05 20:22 | 52.81114 | -1.20467 | 19438 ft | 365 kts | 309° |
| 2026-05-05 20:22 | 52.82742 | -1.23584 | 19005 ft | 361 kts | 309° |
| 2026-05-05 20:22 | 52.84380 | -1.26718 | 18573 ft | 358 kts | 309° |
| 2026-05-05 20:22 | 52.86013 | -1.29816 | 18119 ft | 355 kts | 309° |
| 2026-05-05 20:23 | 52.87632 | -1.32888 | 17677 ft | 352 kts | 309° |
| 2026-05-05 20:23 | 52.89236 | -1.35950 | 17251 ft | 350 kts | 309° |
| 2026-05-05 20:23 | 52.90823 | -1.38988 | 16829 ft | 347 kts | 309° |
| 2026-05-05 20:23 | 52.92399 | -1.42002 | 16406 ft | 345 kts | 309° |
| 2026-05-05 20:24 | 52.93961 | -1.44991 | 15990 ft | 342 kts | 310° |
| 2026-05-05 20:24 | 52.95515 | -1.47967 | 15579 ft | 340 kts | 310° |
| 2026-05-05 20:24 | 52.97036 | -1.50890 | 15174 ft | 337 kts | 310° |
| 2026-05-05 20:24 | 52.98564 | -1.53828 | 14768 ft | 335 kts | 310° |
| 2026-05-05 20:25 | 53.00086 | -1.56754 | 14364 ft | 333 kts | 310° |
| 2026-05-05 20:25 | 53.01594 | -1.59655 | 13962 ft | 330 kts | 310° |
| 2026-05-05 20:25 | 53.03089 | -1.62541 | 13537 ft | 328 kts | 310° |
| 2026-05-05 20:25 | 53.04570 | -1.65402 | 13140 ft | 321 kts | 310° |
| 2026-05-05 20:26 | 53.05983 | -1.68134 | 12753 ft | 303 kts | 310° |
| 2026-05-05 20:26 | 53.07326 | -1.70736 | 12391 ft | 289 kts | 310° |
| 2026-05-05 20:26 | 53.08616 | -1.73222 | 12051 ft | 285 kts | 311° |
| 2026-05-05 20:26 | 53.09905 | -1.75714 | 11719 ft | 283 kts | 310° |
| 2026-05-05 20:27 | 53.11189 | -1.78207 | 11380 ft | 282 kts | 310° |
| 2026-05-05 20:27 | 53.12465 | -1.80688 | 11044 ft | 281 kts | 311° |
| 2026-05-05 20:27 | 53.13736 | -1.83156 | 10707 ft | 279 kts | 311° |
| 2026-05-05 20:27 | 53.15000 | -1.85612 | 10370 ft | 278 kts | 311° |
| 2026-05-05 20:28 | 53.16257 | -1.88060 | 10038 ft | 277 kts | 311° |
| 2026-05-05 20:28 | 53.17504 | -1.90491 | 9686 ft | 275 kts | 311° |
| 2026-05-05 20:28 | 53.18727 | -1.92875 | 9351 ft | 274 kts | 311° |
| 2026-05-05 20:28 | 53.19964 | -1.95289 | 9025 ft | 272 kts | 311° |
| 2026-05-05 20:29 | 53.21168 | -1.97644 | 8697 ft | 261 kts | 311° |
| 2026-05-05 20:29 | 53.22329 | -1.99923 | 8384 ft | 252 kts | 310° |
| 2026-05-05 20:29 | 53.23255 | -2.02368 | 8046 ft | 249 kts | 296° |
| 2026-05-05 20:29 | 53.23766 | -2.05126 | 7761 ft | 249 kts | 282° |
| 2026-05-05 20:30 | 53.23874 | -2.08016 | 7483 ft | 250 kts | 271° |
| 2026-05-05 20:30 | 53.23835 | -2.10877 | 7207 ft | 249 kts | 270° |
| 2026-05-05 20:30 | 53.23822 | -2.13766 | 6907 ft | 248 kts | 270° |
| 2026-05-05 20:30 | 53.23826 | -2.16654 | 6612 ft | 248 kts | 270° |
| 2026-05-05 20:31 | 53.23818 | -2.19536 | 6302 ft | 248 kts | 270° |
| 2026-05-05 20:31 | 53.23801 | -2.22411 | 5992 ft | 247 kts | 269° |
| 2026-05-05 20:31 | 53.23796 | -2.25240 | 5694 ft | 246 kts | 271° |
| 2026-05-05 20:31 | 53.23846 | -2.28126 | 5300 ft | 248 kts | 271° |
| 2026-05-05 20:32 | 53.23853 | -2.31010 | 4841 ft | 248 kts | 270° |
| 2026-05-05 20:32 | 53.23850 | -2.33901 | 4382 ft | 250 kts | 270° |
| 2026-05-05 20:32 | 53.23841 | -2.36810 | 3914 ft | 251 kts | 270° |
| 2026-05-05 20:32 | 53.23825 | -2.39735 | 3451 ft | 253 kts | 270° |
| 2026-05-05 20:33 | 53.23805 | -2.42635 | 3049 ft | 252 kts | 270° |
| 2026-05-05 20:33 | 53.23778 | -2.45455 | 3037 ft | 235 kts | 270° |
| 2026-05-05 20:33 | 53.23874 | -2.48054 | 2961 ft | 215 kts | 286° |
| 2026-05-05 20:33 | 53.24696 | -2.50009 | 2881 ft | 202 kts | 326° |
| 2026-05-05 20:34 | 53.26002 | -2.50528 | 2849 ft | 190 kts | 8° |
| 2026-05-05 20:34 | 53.27121 | -2.49473 | 2781 ft | 186 kts | 49° |
| 2026-05-05 20:34 | 53.27506 | -2.47504 | 2585 ft | 180 kts | 85° |
| 2026-05-05 20:34 | 53.27494 | -2.45487 | 2196 ft | 173 kts | 83° |
| 2026-05-05 20:35 | 53.27855 | -2.43622 | 2053 ft | 163 kts | 68° |
| 2026-05-05 20:35 | 53.28454 | -2.42042 | 1731 ft | 161 kts | 55° |
| 2026-05-05 20:35 | 53.29089 | -2.40569 | 1523 ft | 158 kts | 55° |
| 2026-05-05 20:35 | 53.29750 | -2.39107 | 1354 ft | 157 kts | 52° |
| 2026-05-05 20:36 | 53.30383 | -2.37761 | 1222 ft | 133 kts | 51° |
| 2026-05-05 20:36 | 53.30957 | -2.36673 | 1106 ft | 125 kts | 50° |
| 2026-05-05 20:36 | 53.31494 | -2.35588 | 907 ft | 123 kts | 51° |
| 2026-05-05 20:36 | 53.32026 | -2.34466 | 728 ft | 124 kts | 52° |
| 2026-05-05 20:37 | 53.32542 | -2.33335 | 678 ft | 121 kts | 52° |
| 2026-05-05 20:37 | 53.32896 | -2.32604 | 701 ft | 116 kts | 51° |
| 2026-05-05 20:37 | 53.33528 | -2.31270 | 559 ft | 109 kts | 50° |
| 2026-05-05 20:37 | 53.34007 | -2.30328 | 393 ft | 109 kts | 50° |
| 2026-05-05 20:38 | 53.34473 | -2.29362 | 290 ft | 111 kts | 51° |
| 2026-05-05 20:38 | 53.34937 | -2.28399 | 229 ft | 97 kts | 51° |
| 2026-05-05 20:38 | 53.35229 | -2.27797 | 239 ft | 46 kts | 49° |
| 2026-05-05 20:38 | 53.35399 | -2.27446 | 250 ft | 37 kts | 51° |
| 2026-05-05 20:39 | 53.35549 | -2.27144 | 254 ft | 47 kts | 52° |
| 2026-05-05 20:39 | 53.35698 | -2.26930 | 259 ft | 17 kts | 309° |
| 2026-05-05 20:39 | 53.35721 | -2.27090 | 254 ft | 12 kts | 279° |
| 2026-05-05 20:39 | 53.35727 | -2.27220 | 253 ft | 11 kts | 252° |
| 2026-05-05 20:40 | 53.35679 | -2.27329 | 252 ft | 13 kts | 229° |
| 2026-05-05 20:40 | 53.35619 | -2.27452 | 253 ft | 14 kts | 232° |
| 2026-05-05 20:40 | 53.35558 | -2.27583 | 251 ft | 16 kts | 231° |
| 2026-05-05 20:40 | 53.35480 | -2.27745 | 247 ft | 15 kts | 231° |
| 2026-05-05 20:41 | 53.35453 | -2.27907 | 244 ft | 13 kts | 250° |
| 2026-05-05 20:41 | 53.35454 | -2.28027 | 243 ft | 5 kts | 297° |
| 2026-05-05 20:41 | 53.35465 | -2.28096 | 241 ft | 7 kts | 273° |
| 2026-05-05 20:41 | 53.35512 | -2.28141 | 241 ft | 12 kts | 0° |
| 2026-05-05 20:42 | 53.35561 | -2.28145 | 242 ft | 6 kts | 358° |
| 2026-05-05 20:42 | 53.35591 | -2.28123 | 242 ft | 0 kts | 65° |